createdAt,value
2019-05-23T00:00:27.008Z,2.83
2019-05-23T00:02:54.695Z,1.72
2019-05-23T00:05:26.229Z,1.60
2019-05-23T00:07:54.575Z,1.72
2019-05-23T00:10:29.485Z,1.57
2019-05-23T00:12:59.673Z,1.35
2019-05-23T00:15:34.503Z,1.80
2019-05-23T00:18:03.843Z,1.77
2019-05-23T00:20:32.548Z,1.85
2019-05-23T00:23:01.013Z,1.40
2019-05-23T00:25:28.530Z,0.90
2019-05-23T00:27:56.755Z,0.95
2019-05-23T00:30:26.895Z,2.20
2019-05-23T00:32:59.788Z,1.37
2019-05-23T00:35:27.647Z,2.33
2019-05-23T00:37:55.059Z,2.52
2019-05-23T00:40:22.653Z,2.83
2019-05-23T00:42:50.056Z,1.07
2019-05-23T00:45:18.102Z,0.50
2019-05-23T00:47:46.230Z,0.72
2019-05-23T00:50:19.180Z,0.80
2019-05-23T00:52:49.722Z,1.20
2019-05-23T00:55:17.679Z,1.27
2019-05-23T00:57:45.307Z,0.98
2019-05-23T01:00:19.052Z,0.65
2019-05-23T01:02:47.478Z,1.15
2019-05-23T01:05:16.193Z,1.35
2019-05-23T01:07:44.722Z,2.58
2019-05-23T01:10:14.939Z,1.02
2019-05-23T01:12:43.907Z,1.15
2019-05-23T01:15:12.629Z,1.30
2019-05-23T01:17:40.543Z,0.60
2019-05-23T01:20:11.470Z,0.93
2019-05-23T01:22:39.157Z,2.70
2019-05-23T01:25:08.469Z,0.72
2019-05-23T01:27:36.940Z,4.08
2019-05-23T01:30:11.573Z,0.70
2019-05-23T01:32:42.365Z,0.47
2019-05-23T01:35:10.747Z,1.10
2019-05-23T01:37:37.872Z,0.80
2019-05-23T01:40:06.543Z,0.45
2019-05-23T01:42:34.588Z,0.50
2019-05-23T01:45:02.638Z,1.07
2019-05-23T01:47:30.454Z,1.02
2019-05-23T01:49:58.897Z,1.55
2019-05-23T01:52:27.084Z,0.40
2019-05-23T01:54:54.107Z,0.30
2019-05-23T01:57:23.535Z,0.88
2019-05-23T02:00:06.171Z,0.80
2019-05-23T02:02:22.492Z,0.55
2019-05-23T02:04:50.236Z,1.27
2019-05-23T02:07:17.658Z,1.90
2019-05-23T02:09:45.814Z,0.33
2019-05-23T02:12:15.091Z,0.47
2019-05-23T02:14:43.683Z,0.93
2019-05-23T02:17:13.138Z,1.30
2019-05-23T02:19:40.607Z,1.07
2019-05-23T02:22:08.978Z,0.35
2019-05-23T02:24:36.393Z,0.20
2019-05-23T02:27:05.043Z,1.17
2019-05-23T02:29:33.271Z,0.10
2019-05-23T02:32:02.974Z,1.10
2019-05-23T02:34:29.978Z,0.33
2019-05-23T02:36:58.331Z,1.00
2019-05-23T02:39:39.812Z,0.40
2019-05-23T02:42:24.716Z,0.47
2019-05-23T02:44:52.463Z,0.75
2019-05-23T02:47:32.693Z,1.35
2019-05-23T02:50:02.032Z,0.40
2019-05-23T02:52:38.610Z,0.60
2019-05-23T02:55:24.859Z,1.45
2019-05-23T02:57:58.617Z,0.68
2019-05-23T03:00:54.374Z,0.80
2019-05-23T03:03:24.031Z,1.22
2019-05-23T03:05:51.767Z,2.25
2019-05-23T03:08:21.904Z,1.32
2019-05-23T03:11:01.597Z,0.30
2019-05-23T03:13:29.644Z,0.35
2019-05-23T03:15:57.541Z,1.37
2019-05-23T03:18:26.608Z,0.85
2019-05-23T03:20:55.316Z,0.50
2019-05-23T03:23:23.097Z,0.70
2019-05-23T03:26:04.943Z,1.35
2019-05-23T03:28:38.615Z,1.27
2019-05-23T03:31:29.987Z,0.60
2019-05-23T03:33:49.655Z,0.93
2019-05-23T03:36:19.298Z,0.80
2019-05-23T03:38:47.085Z,1.30
2019-05-23T03:41:14.301Z,0.55
2019-05-23T03:43:42.021Z,1.05
2019-05-23T03:46:23.485Z,2.00
2019-05-23T03:48:52.582Z,1.30
2019-05-23T03:51:21.012Z,0.45
2019-05-23T03:53:51.278Z,0.40
2019-05-23T03:56:19.093Z,0.47
2019-05-23T03:58:47.357Z,2.50
2019-05-23T04:01:17.609Z,0.95
2019-05-23T04:03:44.656Z,0.80
2019-05-23T04:06:12.399Z,0.40
2019-05-23T04:08:40.982Z,1.47
2019-05-23T04:11:08.614Z,0.90
2019-05-23T04:13:35.755Z,0.78
2019-05-23T04:16:04.448Z,1.42
2019-05-23T04:18:32.156Z,0.93
2019-05-23T04:20:59.425Z,0.98
2019-05-23T04:23:26.629Z,1.17
2019-05-23T04:25:54.078Z,0.50
2019-05-23T04:28:21.396Z,1.20
2019-05-23T04:30:48.578Z,1.47
2019-05-23T04:33:16.383Z,2.55
2019-05-23T04:35:43.940Z,0.95
2019-05-23T04:38:11.045Z,0.70
2019-05-23T04:40:38.625Z,0.90
2019-05-23T04:43:05.972Z,2.67
2019-05-23T04:45:33.935Z,0.75
2019-05-23T04:48:01.178Z,0.65
2019-05-23T04:50:29.106Z,0.47
2019-05-23T04:52:56.753Z,0.72
2019-05-23T04:55:24.010Z,0.98
2019-05-23T04:57:51.656Z,0.93
2019-05-23T05:00:20.879Z,0.82
2019-05-23T05:02:48.005Z,3.37
2019-05-23T05:05:15.707Z,0.75
2019-05-23T05:07:43.574Z,0.80
2019-05-23T05:10:16.746Z,1.05
2019-05-23T05:12:44.341Z,1.35
2019-05-23T05:15:12.741Z,1.00
2019-05-23T05:17:40.695Z,1.45
2019-05-23T05:20:08.955Z,1.85
2019-05-23T05:22:36.569Z,1.05
2019-05-23T05:25:05.092Z,1.12
2019-05-23T05:27:32.277Z,2.02
2019-05-23T05:29:59.908Z,1.95
2019-05-23T05:32:43.274Z,2.42
2019-05-23T05:34:58.435Z,1.25
2019-05-23T05:37:25.623Z,0.75
2019-05-23T05:39:53.838Z,0.93
2019-05-23T05:42:22.156Z,1.17
2019-05-23T05:44:50.855Z,1.20
2019-05-23T05:47:19.768Z,1.87
2019-05-23T05:49:46.952Z,3.02
2019-05-23T05:52:14.684Z,2.10
2019-05-23T05:54:42.428Z,2.55
2019-05-23T05:57:10.265Z,0.98
2019-05-23T05:59:38.235Z,1.15
2019-05-23T06:02:07.909Z,1.57
2019-05-23T06:04:38.684Z,2.47
2019-05-23T06:07:10.663Z,1.20
2019-05-23T06:09:38.559Z,1.80
2019-05-23T06:12:06.031Z,1.15
2019-05-23T06:14:33.230Z,2.30
2019-05-23T06:17:04.575Z,0.98
2019-05-23T06:19:32.423Z,1.65
2019-05-23T06:21:59.625Z,2.30
2019-05-23T06:24:42.211Z,1.25
2019-05-23T06:26:57.399Z,1.70
2019-05-23T06:29:25.117Z,1.22
2019-05-23T06:31:53.310Z,0.82
2019-05-23T06:34:20.813Z,1.02
2019-05-23T06:36:47.952Z,0.80
2019-05-23T06:39:16.952Z,0.78
2019-05-23T06:41:44.309Z,2.20
2019-05-23T06:44:12.117Z,2.00
2019-05-23T06:46:39.715Z,1.00
2019-05-23T06:49:06.817Z,0.85
2019-05-23T06:51:33.957Z,2.00
2019-05-23T06:54:00.999Z,1.67
2019-05-23T06:56:28.151Z,4.37
2019-05-23T06:58:55.879Z,1.02
2019-05-23T07:01:22.903Z,1.60
2019-05-23T07:03:50.323Z,0.65
2019-05-23T07:06:20.991Z,2.58
2019-05-23T07:08:48.107Z,2.52
2019-05-23T07:11:18.909Z,1.25
2019-05-23T07:13:46.906Z,2.85
2019-05-23T07:16:14.055Z,2.83
2019-05-23T07:18:42.085Z,1.90
2019-05-23T07:21:10.289Z,2.27
2019-05-23T07:23:37.748Z,4.75
2019-05-23T07:26:05.174Z,1.40
2019-05-23T07:28:33.716Z,0.72
2019-05-23T07:31:01.231Z,1.15
2019-05-23T07:33:28.322Z,1.80
2019-05-23T07:35:55.695Z,2.35
2019-05-23T07:38:23.224Z,2.92
2019-05-23T07:40:51.029Z,3.60
2019-05-23T07:43:20.023Z,1.60
2019-05-23T07:45:57.344Z,2.17
2019-05-23T07:48:25.917Z,2.20
2019-05-23T07:50:53.145Z,2.20
2019-05-23T07:53:32.995Z,2.50
2019-05-23T07:56:02.167Z,2.08
2019-05-23T07:58:29.390Z,4.50
2019-05-23T08:01:01.828Z,9.45
2019-05-23T08:03:32.537Z,10.15
2019-05-23T08:06:00.026Z,8.30
2019-05-23T08:08:27.401Z,8.68
2019-05-23T08:10:54.872Z,10.40
2019-05-23T08:13:22.432Z,11.75
2019-05-23T08:15:50.060Z,14.00
2019-05-23T08:18:17.559Z,15.15
2019-05-23T08:20:44.960Z,25.20
2019-05-23T08:23:13.295Z,34.88
2019-05-23T08:25:40.518Z,24.98
2019-05-23T08:28:08.095Z,23.85
2019-05-23T08:30:36.178Z,21.50
2019-05-23T08:33:04.608Z,19.37
2019-05-23T08:35:32.226Z,14.00
2019-05-23T08:37:59.664Z,13.08
2019-05-23T08:40:28.838Z,9.20
2019-05-23T08:42:56.245Z,6.72
2019-05-23T08:45:23.691Z,5.65
2019-05-23T08:47:51.097Z,6.80
2019-05-23T08:50:19.981Z,22.77
2019-05-23T08:52:47.421Z,37.75
2019-05-23T08:55:18.960Z,17.65
2019-05-23T08:57:46.154Z,32.08
2019-05-23T09:00:14.575Z,10.90
2019-05-23T09:02:43.421Z,5.95
2019-05-23T09:05:10.673Z,4.55
2019-05-23T09:07:37.827Z,2.90
2019-05-23T09:10:05.505Z,3.80
2019-05-23T09:12:33.684Z,3.52
2019-05-23T09:15:00.888Z,3.72
2019-05-23T09:17:28.419Z,4.58
2019-05-23T09:19:55.475Z,6.40
2019-05-23T09:22:22.667Z,74.27
2019-05-23T09:24:50.352Z,84.07
2019-05-23T09:27:17.460Z,93.55
2019-05-23T09:29:44.718Z,57.13
2019-05-23T09:32:12.473Z,13.10
2019-05-23T09:34:40.093Z,26.35
2019-05-23T09:37:08.910Z,7.95
2019-05-23T09:39:36.215Z,9.23
2019-05-23T09:42:03.945Z,19.42
2019-05-23T09:44:31.267Z,93.33
2019-05-23T09:46:58.650Z,119.50
2019-05-23T09:49:25.936Z,7.53
2019-05-23T09:51:57.149Z,36.55
2019-05-23T09:54:24.307Z,9.35
2019-05-23T09:56:52.345Z,6.30
2019-05-23T09:59:19.347Z,20.95
2019-05-23T10:01:49.124Z,7.67
2019-05-23T10:04:16.446Z,15.20
2019-05-23T10:06:46.123Z,10.50
2019-05-23T10:09:12.971Z,38.33
2019-05-23T10:11:40.386Z,41.53
2019-05-23T10:14:09.779Z,20.15
2019-05-23T10:16:37.259Z,18.23
2019-05-23T10:19:04.597Z,11.33
2019-05-23T10:21:31.647Z,6.47
2019-05-23T10:23:59.124Z,6.47
2019-05-23T10:26:26.523Z,3.02
2019-05-23T10:28:53.792Z,4.10
2019-05-23T10:31:21.177Z,4.10
2019-05-23T10:33:48.233Z,3.35
2019-05-23T10:36:15.736Z,5.60
2019-05-23T10:38:43.763Z,5.85
2019-05-23T10:41:11.017Z,9.43
2019-05-23T10:43:38.208Z,12.88
2019-05-23T10:46:05.555Z,5.78
2019-05-23T10:48:32.896Z,6.62
2019-05-23T10:51:00.190Z,4.65
2019-05-23T10:53:27.418Z,4.58
2019-05-23T10:55:54.861Z,6.33
2019-05-23T10:58:22.050Z,9.83
2019-05-23T11:00:50.334Z,14.28
2019-05-23T11:03:17.673Z,7.25
2019-05-23T11:05:45.192Z,4.47
2019-05-23T11:08:12.330Z,4.78
2019-05-23T11:10:40.060Z,4.00
2019-05-23T11:13:07.475Z,4.40
2019-05-23T11:15:35.070Z,9.05
2019-05-23T11:18:02.651Z,12.98
2019-05-23T11:20:30.316Z,4.58
2019-05-23T11:22:58.478Z,5.85
2019-05-23T11:25:27.662Z,3.90
2019-05-23T11:27:55.821Z,4.92
2019-05-23T11:30:31.363Z,8.65
2019-05-23T11:32:58.638Z,4.30
2019-05-23T11:35:26.395Z,2.50
2019-05-23T11:37:53.619Z,5.20
2019-05-23T11:40:20.667Z,4.08
2019-05-23T11:42:47.938Z,5.83
2019-05-23T11:45:15.980Z,4.33
2019-05-23T11:47:43.380Z,5.37
2019-05-23T11:50:11.119Z,4.60
2019-05-23T11:52:38.859Z,5.87
2019-05-23T11:55:07.791Z,2.45
2019-05-23T11:57:37.784Z,2.62
2019-05-23T12:00:13.130Z,3.10
2019-05-23T12:05:14.760Z,3.52
2019-05-23T12:07:41.908Z,3.77
2019-05-23T12:10:10.053Z,3.40
2019-05-23T12:12:37.123Z,3.27
2019-05-23T12:15:10.529Z,3.05
2019-05-23T12:17:39.284Z,6.03
2019-05-23T12:20:08.080Z,6.80
2019-05-23T12:22:35.441Z,7.08
2019-05-23T12:25:21.257Z,4.58
2019-05-23T12:27:35.653Z,7.20
2019-05-23T12:30:06.685Z,5.83
2019-05-23T12:32:34.337Z,11.88
2019-05-23T12:35:11.324Z,41.88
2019-05-23T12:37:34.890Z,31.00
2019-05-23T12:40:08.433Z,16.32
2019-05-23T12:42:35.491Z,21.40
2019-05-23T12:45:06.387Z,12.60
2019-05-23T12:47:35.426Z,9.13
2019-05-23T12:50:07.650Z,4.62
2019-05-23T12:52:34.479Z,5.72
2019-05-23T12:55:03.062Z,6.65
2019-05-23T12:57:30.227Z,6.12
2019-05-23T12:59:57.863Z,10.15
2019-05-23T13:02:27.224Z,7.83
2019-05-23T13:04:54.494Z,10.13
2019-05-23T13:07:35.553Z,8.85
2019-05-23T13:09:51.411Z,12.00
2019-05-23T13:12:18.951Z,20.37
2019-05-23T13:14:46.060Z,18.75
2019-05-23T13:17:13.082Z,11.55
2019-05-23T13:19:40.837Z,15.28
2019-05-23T13:22:08.908Z,7.83
2019-05-23T13:24:51.278Z,17.32
2019-05-23T13:27:05.376Z,40.70
2019-05-23T13:29:33.540Z,9.50
2019-05-23T13:32:00.892Z,31.20
2019-05-23T13:34:28.310Z,61.75
2019-05-23T13:36:55.275Z,78.72
2019-05-23T13:39:22.429Z,19.82
2019-05-23T13:41:49.527Z,22.82
2019-05-23T13:44:32.651Z,27.87
2019-05-23T13:46:47.164Z,46.95
2019-05-23T13:49:15.973Z,17.15
2019-05-23T13:51:43.125Z,24.05
2019-05-23T13:54:10.444Z,14.35
2019-05-23T13:56:37.636Z,22.40
2019-05-23T13:59:04.719Z,12.13
2019-05-23T14:01:32.298Z,17.48
2019-05-23T14:04:00.119Z,29.32
2019-05-23T14:06:27.582Z,36.83
2019-05-23T14:08:55.515Z,42.17
2019-05-23T14:11:22.739Z,36.83
2019-05-23T14:13:59.198Z,36.53
2019-05-23T14:16:19.766Z,51.83
2019-05-23T14:18:47.316Z,43.08
2019-05-23T14:21:14.540Z,41.35
2019-05-23T14:23:42.148Z,15.80
2019-05-23T14:26:11.095Z,17.25
2019-05-23T14:28:38.338Z,17.75
2019-05-23T14:31:10.759Z,15.68
2019-05-23T14:33:41.324Z,21.60
2019-05-23T14:36:10.550Z,34.45
2019-05-23T14:38:37.630Z,31.80
2019-05-23T14:41:05.779Z,18.95
2019-05-23T14:43:33.079Z,14.60
2019-05-23T14:46:02.417Z,9.88
2019-05-23T14:48:48.586Z,14.03
2019-05-23T14:51:33.919Z,14.10
2019-05-23T14:54:06.993Z,22.00
2019-05-23T14:56:35.830Z,21.65
2019-05-23T14:59:03.812Z,13.32
2019-05-23T15:01:32.905Z,28.65
2019-05-23T15:04:00.058Z,56.58
2019-05-23T15:06:27.480Z,45.12
2019-05-23T15:08:54.707Z,36.83
2019-05-23T15:11:21.724Z,39.73
2019-05-23T15:13:49.510Z,28.98
2019-05-23T15:16:16.877Z,22.67
2019-05-23T15:18:44.045Z,21.27
2019-05-23T15:21:11.545Z,14.25
2019-05-23T15:23:38.900Z,16.80
2019-05-23T15:26:21.566Z,14.58
2019-05-23T15:28:35.388Z,16.27
2019-05-23T15:31:03.232Z,21.07
2019-05-23T15:33:30.845Z,22.30
2019-05-23T15:35:58.679Z,17.27
2019-05-23T15:38:26.432Z,17.00
2019-05-23T15:40:53.437Z,19.62
2019-05-23T15:43:20.515Z,22.13
2019-05-23T15:45:47.668Z,12.25
2019-05-23T15:48:14.578Z,11.45
2019-05-23T15:50:52.101Z,9.03
2019-05-23T15:53:40.315Z,14.43
2019-05-23T15:56:27.007Z,12.85
2019-05-23T15:58:41.010Z,14.28
2019-05-23T16:01:22.356Z,21.27
2019-05-23T16:03:54.524Z,18.98
2019-05-23T16:06:26.510Z,19.37
2019-05-23T16:08:54.096Z,20.30
2019-05-23T16:11:21.563Z,28.52
2019-05-23T16:13:48.789Z,28.30
2019-05-23T16:16:16.101Z,39.58
2019-05-23T16:18:43.919Z,35.95
2019-05-23T16:21:11.593Z,37.83
2019-05-23T16:23:38.931Z,46.37
2019-05-23T16:26:05.976Z,43.20
2019-05-23T16:28:33.104Z,43.40
2019-05-23T16:31:00.321Z,34.23
2019-05-23T16:33:27.325Z,34.88
2019-05-23T16:35:54.858Z,33.98
2019-05-23T16:38:22.320Z,37.63
2019-05-23T16:40:49.219Z,37.58
2019-05-23T16:43:16.978Z,42.08
2019-05-23T16:45:44.497Z,24.72
2019-05-23T16:48:11.847Z,23.40
2019-05-23T16:50:39.111Z,24.85
2019-05-23T16:53:06.524Z,22.45
2019-05-23T16:55:33.417Z,35.03
2019-05-23T16:58:05.018Z,108.47
2019-05-23T17:00:40.055Z,89.67
2019-05-23T17:03:07.500Z,97.88
2019-05-23T17:05:36.626Z,104.20
2019-05-23T17:08:13.221Z,100.47
2019-05-23T17:10:42.385Z,83.67
2019-05-23T17:13:13.911Z,60.88
2019-05-23T17:15:43.102Z,77.60
2019-05-23T17:18:28.769Z,72.72
2019-05-23T17:21:00.199Z,71.90
2019-05-23T17:23:46.206Z,79.62
2019-05-23T17:26:27.272Z,67.85
2019-05-23T17:28:57.198Z,68.42
2019-05-23T17:31:26.613Z,109.17
2019-05-23T17:33:53.643Z,55.55
2019-05-23T17:36:20.960Z,43.40
2019-05-23T17:38:48.403Z,38.78
2019-05-23T17:41:15.684Z,48.30
2019-05-23T17:43:42.952Z,60.50
2019-05-23T17:46:10.107Z,73.67
2019-05-23T17:48:37.312Z,82.50
2019-05-23T17:51:04.459Z,75.85
2019-05-23T17:53:31.675Z,56.35
2019-05-23T17:55:58.862Z,35.17
2019-05-23T17:58:26.122Z,36.53
2019-05-23T18:00:53.942Z,28.52
2019-05-23T18:03:21.769Z,26.23
2019-05-23T18:05:50.484Z,29.20
2019-05-23T18:08:18.873Z,35.55
2019-05-23T18:10:47.401Z,37.88
2019-05-23T18:13:15.537Z,39.25
2019-05-23T18:15:43.938Z,40.90
2019-05-23T18:18:11.798Z,39.67
2019-05-23T18:20:40.162Z,48.42
2019-05-23T18:23:09.364Z,42.95
2019-05-23T18:25:37.541Z,41.83
2019-05-23T18:28:06.889Z,39.78
2019-05-23T18:30:55.202Z,40.58
2019-05-23T18:33:24.529Z,40.35
2019-05-23T18:35:53.021Z,42.43
2019-05-23T18:38:22.045Z,97.57
2019-05-23T18:41:02.878Z,53.92
2019-05-23T18:43:20.895Z,48.48
2019-05-23T18:45:51.119Z,52.73
2019-05-23T18:48:19.193Z,55.63
2019-05-23T18:50:48.293Z,48.35
2019-05-23T18:53:16.625Z,47.03
2019-05-23T18:55:44.748Z,45.00
2019-05-23T18:58:13.031Z,44.83
2019-05-23T19:01:04.758Z,43.87
2019-05-23T19:03:33.034Z,45.12
2019-05-23T19:06:01.725Z,45.78
2019-05-23T19:08:30.105Z,50.98
2019-05-23T19:10:58.696Z,46.55
2019-05-23T19:13:26.818Z,44.20
2019-05-23T19:15:54.929Z,46.98
2019-05-23T19:18:24.819Z,41.15
2019-05-23T19:20:54.754Z,41.02
2019-05-23T19:23:24.254Z,49.88
2019-05-23T19:25:52.260Z,52.15
2019-05-23T19:28:20.541Z,46.73
2019-05-23T19:30:48.522Z,50.75
2019-05-23T19:33:16.325Z,65.50
2019-05-23T19:35:47.408Z,55.45
2019-05-23T19:38:14.170Z,28.00
2019-05-23T19:40:41.809Z,25.23
2019-05-23T19:43:10.009Z,20.20
2019-05-23T19:45:37.105Z,15.38
2019-05-23T19:48:04.593Z,13.13
2019-05-23T19:50:32.400Z,14.65
2019-05-23T19:52:59.547Z,13.30
2019-05-23T19:55:27.473Z,13.13
2019-05-23T19:57:56.122Z,10.65
2019-05-23T20:00:25.205Z,15.75
2019-05-23T20:02:56.927Z,12.98
2019-05-23T20:05:38.093Z,13.90
2019-05-23T20:08:05.897Z,12.65
2019-05-23T20:10:33.844Z,14.10
2019-05-23T20:13:01.277Z,17.62
2019-05-23T20:15:30.049Z,11.38
2019-05-23T20:17:57.666Z,15.60
2019-05-23T20:20:25.072Z,11.88
2019-05-23T20:22:52.456Z,16.57
2019-05-23T20:25:20.122Z,16.10
2019-05-23T20:27:47.544Z,17.87
2019-05-23T20:30:38.859Z,19.50
2019-05-23T20:33:06.266Z,17.25
2019-05-23T20:35:34.021Z,23.27
2019-05-23T20:38:01.407Z,30.95
2019-05-23T20:40:29.411Z,15.05
2019-05-23T20:42:56.865Z,15.18
2019-05-23T20:45:24.098Z,20.60
2019-05-23T20:47:51.348Z,22.62
2019-05-23T20:50:18.496Z,11.45
2019-05-23T20:52:45.408Z,12.28
2019-05-23T20:55:12.912Z,15.45
2019-05-23T20:57:39.964Z,23.22
2019-05-23T21:00:09.333Z,27.75
2019-05-23T21:02:36.423Z,31.17
2019-05-23T21:05:06.368Z,32.20
2019-05-23T21:07:33.169Z,31.30
2019-05-23T21:10:00.272Z,34.08
2019-05-23T21:12:30.363Z,37.48
2019-05-23T21:14:57.007Z,34.50
2019-05-23T21:17:25.488Z,37.78
2019-05-23T21:19:52.364Z,39.90
2019-05-23T21:22:19.523Z,35.88
2019-05-23T21:24:46.411Z,36.15
2019-05-23T21:27:13.749Z,33.13
2019-05-23T21:29:40.738Z,31.77
2019-05-23T21:32:08.123Z,28.70
2019-05-23T21:34:35.543Z,27.82
2019-05-23T21:37:03.022Z,28.30
2019-05-23T21:39:30.067Z,26.52
2019-05-23T21:41:57.163Z,27.30
2019-05-23T21:44:24.099Z,24.07
2019-05-23T21:46:51.202Z,21.77
2019-05-23T21:49:18.456Z,20.30
2019-05-23T21:51:45.903Z,16.62
2019-05-23T21:54:13.323Z,15.68
2019-05-23T21:56:40.240Z,12.82
2019-05-23T21:59:07.265Z,10.23
2019-05-23T22:01:39.137Z,10.55
2019-05-23T22:04:09.407Z,11.20
2019-05-23T22:06:44.353Z,10.50
2019-05-23T22:09:13.550Z,9.60
2019-05-23T22:11:40.744Z,8.73
2019-05-23T22:14:07.835Z,7.87
2019-05-23T22:16:34.939Z,6.72
2019-05-23T22:19:03.388Z,6.83
2019-05-23T22:21:30.913Z,6.65
2019-05-23T22:23:57.976Z,6.85
2019-05-23T22:26:25.623Z,7.70
2019-05-23T22:28:52.782Z,8.73
2019-05-23T22:31:20.596Z,7.45
2019-05-23T22:34:06.182Z,8.23
2019-05-23T22:36:33.656Z,8.47
2019-05-23T22:39:01.195Z,10.23
2019-05-23T22:41:28.815Z,9.53
2019-05-23T22:43:55.825Z,11.90
2019-05-23T22:46:22.928Z,10.45
2019-05-23T22:48:50.077Z,9.75
2019-05-23T22:51:17.198Z,11.70
2019-05-23T22:53:44.226Z,14.60
2019-05-23T22:56:11.195Z,12.73
2019-05-23T22:58:38.690Z,11.70
2019-05-23T23:01:06.142Z,10.18
2019-05-23T23:03:34.013Z,13.70
2019-05-23T23:06:01.219Z,11.55
2019-05-23T23:08:29.273Z,10.55
2019-05-23T23:10:56.697Z,11.03
2019-05-23T23:13:37.722Z,10.82
2019-05-23T23:15:53.031Z,8.95
2019-05-23T23:18:20.418Z,10.63
2019-05-23T23:20:47.457Z,11.20
2019-05-23T23:23:14.630Z,9.50
2019-05-23T23:25:41.975Z,9.45
2019-05-23T23:28:09.184Z,9.00
2019-05-23T23:30:41.128Z,8.10
2019-05-23T23:33:08.240Z,9.88
2019-05-23T23:35:35.939Z,9.83
2019-05-23T23:38:03.677Z,10.93
2019-05-23T23:40:32.224Z,11.43
2019-05-23T23:42:59.269Z,9.83
2019-05-23T23:45:44.955Z,9.93
2019-05-23T23:48:30.750Z,11.17
2019-05-23T23:51:16.859Z,8.93
2019-05-23T23:54:02.406Z,11.33
2019-05-23T23:56:47.963Z,11.30
2019-05-23T23:59:15.189Z,10.60
